createdAt,value
2023-02-15T00:00:39.347Z,101948.13
2023-02-15T00:03:12.826Z,101942.84
2023-02-15T00:05:46.342Z,101946.34
2023-02-15T00:08:19.835Z,101943.66
2023-02-15T00:10:54.967Z,101941.88
2023-02-15T00:13:28.414Z,101943.59
2023-02-15T00:16:06.271Z,101939.13
2023-02-15T00:18:40.589Z,101935.56
2023-02-15T00:21:13.989Z,101940.84
2023-02-15T00:23:47.486Z,101936.44
2023-02-15T00:26:22.372Z,101932.03
2023-02-15T00:28:57.060Z,101934.66
2023-02-15T00:31:33.958Z,101928.47
2023-02-15T00:34:13.147Z,101932.06
2023-02-15T00:36:47.015Z,101920.59
2023-02-15T00:39:30.194Z,101912.66
2023-02-15T00:42:05.186Z,101917.13
2023-02-15T00:44:38.744Z,101914.47
2023-02-15T00:47:12.364Z,101916.22
2023-02-15T00:49:45.870Z,101910.94
2023-02-15T00:52:19.387Z,101910.94
2023-02-15T00:54:52.836Z,101908.31
2023-02-15T00:57:27.733Z,101903.88
2023-02-15T01:00:01.270Z,101900.38
2023-02-15T01:04:49.693Z,101896.84
2023-02-15T01:07:23.203Z,101901.22
2023-02-15T01:09:56.634Z,101894.22
2023-02-15T01:12:30.127Z,101898.59
2023-02-15T01:15:03.576Z,101892.44
2023-02-15T01:17:37.211Z,101891.59
2023-02-15T01:20:12.549Z,101897.81
2023-02-15T01:22:46.829Z,101896.91
2023-02-15T01:25:21.108Z,101901.28
2023-02-15T01:27:55.341Z,101896.00
2023-02-15T01:30:29.025Z,101894.25
2023-02-15T01:33:02.960Z,101888.06
2023-02-15T01:35:40.664Z,101884.56
2023-02-15T01:38:14.170Z,101887.19
2023-02-15T01:40:47.594Z,101876.59
2023-02-15T01:43:21.516Z,101873.94
2023-02-15T01:45:54.928Z,101875.72
2023-02-15T01:48:30.164Z,101879.22
2023-02-15T01:51:05.290Z,101873.91
2023-02-15T01:53:42.984Z,101873.91
2023-02-15T01:56:19.799Z,101865.06
2023-02-15T01:58:59.151Z,101866.81
2023-02-15T02:01:33.117Z,101863.25
2023-02-15T02:04:11.671Z,101866.84
2023-02-15T02:06:48.909Z,101869.44
2023-02-15T02:09:22.513Z,101866.81
2023-02-15T02:11:56.741Z,101857.09
2023-02-15T02:14:30.762Z,101852.69
2023-02-15T02:17:13.069Z,101853.59
2023-02-15T02:20:17.833Z,101853.59
2023-02-15T02:23:26.006Z,101850.09
2023-02-15T02:26:48.323Z,101851.88
2023-02-15T02:29:57.989Z,101852.75
2023-02-15T02:33:11.595Z,101845.69
2023-02-15T02:35:54.788Z,101850.09
2023-02-15T02:38:37.836Z,101843.91
2023-02-15T02:41:19.992Z,101841.28
2023-02-15T02:44:03.908Z,101836.84
2023-02-15T02:46:46.143Z,101839.50
2023-02-15T02:49:38.148Z,101842.16
2023-02-15T02:52:43.221Z,101837.75
2023-02-15T02:55:23.353Z,101843.03
2023-02-15T02:58:00.194Z,101841.31
2023-02-15T03:00:37.336Z,101842.19
2023-02-15T03:03:18.950Z,101828.06
2023-02-15T03:05:57.752Z,101839.53
2023-02-15T03:08:38.405Z,101836.00
2023-02-15T03:11:13.543Z,101837.75
2023-02-15T03:13:51.132Z,101830.72
2023-02-15T03:16:29.891Z,101835.09
2023-02-15T03:19:08.209Z,101830.69
2023-02-15T03:21:50.536Z,101825.41
2023-02-15T03:24:27.486Z,101828.91
2023-02-15T03:27:04.604Z,101831.56
2023-02-15T03:29:39.556Z,101824.50
2023-02-15T03:32:14.682Z,101823.63
2023-02-15T03:34:48.461Z,101833.34
2023-02-15T03:37:29.173Z,101823.66
2023-02-15T03:40:27.035Z,101823.66
2023-02-15T03:43:08.626Z,101829.81
2023-02-15T03:45:55.864Z,101830.69
2023-02-15T03:48:33.918Z,101828.94
2023-02-15T03:51:29.064Z,101826.31
2023-02-15T03:54:06.348Z,101834.25
2023-02-15T03:56:42.434Z,101832.47
2023-02-15T03:59:33.068Z,101830.72
2023-02-15T04:02:17.232Z,101835.13
2023-02-15T04:04:51.381Z,101830.72
2023-02-15T04:07:24.777Z,101826.31
2023-02-15T04:10:16.885Z,101827.19
2023-02-15T04:12:50.277Z,101819.25
2023-02-15T04:15:40.789Z,101822.75
2023-02-15T04:18:14.258Z,101820.13
2023-02-15T04:21:05.758Z,101826.31
2023-02-15T04:23:56.712Z,101826.31
2023-02-15T04:26:31.563Z,101818.38
2023-02-15T04:29:05.070Z,101814.84
2023-02-15T04:31:38.573Z,101824.53
2023-02-15T04:34:12.940Z,101812.19
2023-02-15T04:36:46.866Z,101816.59
2023-02-15T04:39:20.629Z,101819.25
2023-02-15T04:41:55.511Z,101813.94
2023-02-15T04:44:29.092Z,101817.47
2023-02-15T04:47:02.575Z,101814.84
2023-02-15T04:49:36.092Z,101816.59
2023-02-15T04:52:09.553Z,101813.94
2023-02-15T04:54:43.189Z,101804.25
2023-02-15T04:57:18.109Z,101804.25
2023-02-15T04:59:51.634Z,101810.41
2023-02-15T05:02:25.161Z,101818.34
2023-02-15T05:04:58.662Z,101818.34
2023-02-15T05:07:32.106Z,101813.06
2023-02-15T05:10:06.391Z,101814.84
2023-02-15T05:12:41.201Z,101820.13
2023-02-15T05:15:14.994Z,101817.47
2023-02-15T05:17:48.510Z,101814.81
2023-02-15T05:20:22.043Z,101818.38
2023-02-15T05:22:56.669Z,101815.72
2023-02-15T05:25:47.811Z,101817.47
2023-02-15T05:28:23.428Z,101820.13
2023-02-15T05:31:05.734Z,101827.22
2023-02-15T05:33:39.897Z,101828.97
2023-02-15T05:36:13.489Z,101829.88
2023-02-15T05:38:47.049Z,101823.69
2023-02-15T05:41:20.585Z,101825.44
2023-02-15T05:43:57.599Z,101821.03
2023-02-15T05:46:33.676Z,101825.41
2023-02-15T05:49:10.092Z,101824.53
2023-02-15T05:51:45.010Z,101822.78
2023-02-15T05:54:18.461Z,101828.06
2023-02-15T05:56:51.867Z,101829.84
2023-02-15T05:59:26.749Z,101828.06
2023-02-15T06:02:00.167Z,101821.91
2023-02-15T06:04:33.543Z,101827.22
2023-02-15T06:07:06.927Z,101834.28
2023-02-15T06:09:40.320Z,101832.50
2023-02-15T06:12:13.787Z,101828.09
2023-02-15T06:14:48.625Z,101828.09
2023-02-15T06:17:22.795Z,101821.94
2023-02-15T06:19:56.278Z,101826.31
2023-02-15T06:22:29.710Z,101823.69
2023-02-15T06:25:03.598Z,101817.50
2023-02-15T06:27:36.849Z,101817.53
2023-02-15T06:30:13.850Z,101821.03
2023-02-15T06:32:47.359Z,101833.41
2023-02-15T06:35:20.935Z,101832.53
2023-02-15T06:37:56.779Z,101829.00
2023-02-15T06:40:30.305Z,101829.00
2023-02-15T06:43:03.766Z,101828.13
2023-02-15T06:45:38.675Z,101825.47
2023-02-15T06:48:12.346Z,101834.28
2023-02-15T06:50:45.845Z,101826.34
2023-02-15T06:53:19.395Z,101826.34
2023-02-15T06:55:52.944Z,101821.06
2023-02-15T06:58:26.498Z,101824.56
2023-02-15T07:01:01.451Z,101818.41
2023-02-15T07:03:36.101Z,101819.28
2023-02-15T07:06:11.765Z,101822.84
2023-02-15T07:08:45.383Z,101823.72
2023-02-15T07:11:50.787Z,101818.41
2023-02-15T07:14:24.380Z,101818.41
2023-02-15T07:16:59.190Z,101820.16
2023-02-15T07:19:32.645Z,101814.88
2023-02-15T07:22:08.466Z,101821.94
2023-02-15T07:24:41.802Z,101819.28
2023-02-15T07:27:15.205Z,101815.78
2023-02-15T07:29:48.635Z,101819.28
2023-02-15T07:32:23.559Z,101820.16
2023-02-15T07:34:57.344Z,101823.69
2023-02-15T07:37:30.784Z,101818.38
2023-02-15T07:40:05.069Z,101821.03
2023-02-15T07:42:38.500Z,101817.50
2023-02-15T07:45:12.013Z,101817.50
2023-02-15T07:47:46.893Z,101812.22
2023-02-15T07:50:25.518Z,101806.91
2023-02-15T07:53:01.520Z,101804.25
2023-02-15T07:55:34.956Z,101799.84
2023-02-15T07:58:08.416Z,101803.41
2023-02-15T08:00:55.583Z,101794.53
2023-02-15T08:03:30.520Z,101793.66
2023-02-15T08:06:04.155Z,101788.34
2023-02-15T08:08:38.784Z,101784.81
2023-02-15T08:11:44.211Z,101785.72
2023-02-15T08:14:19.391Z,101778.63
2023-02-15T08:16:55.954Z,101775.09
2023-02-15T08:19:33.343Z,101770.69
2023-02-15T08:22:08.323Z,101768.94
2023-02-15T08:24:42.256Z,101776.88
2023-02-15T08:27:15.410Z,101776.84
2023-02-15T08:29:48.758Z,101768.03
2023-02-15T08:32:22.322Z,101765.38
2023-02-15T08:34:57.590Z,101760.94
2023-02-15T08:37:31.000Z,101765.38
2023-02-15T08:40:05.827Z,101760.94
2023-02-15T08:42:39.333Z,101763.59
2023-02-15T08:45:12.740Z,101748.59
2023-02-15T08:47:46.626Z,101747.69
2023-02-15T08:50:21.636Z,101750.31
2023-02-15T08:52:55.262Z,101752.09
2023-02-15T08:55:29.617Z,101747.66
2023-02-15T08:58:03.458Z,101747.66
2023-02-15T09:00:37.069Z,101738.81
2023-02-15T09:03:11.077Z,101746.81
2023-02-15T09:05:46.582Z,101752.13
2023-02-15T09:08:21.293Z,101747.69
2023-02-15T09:10:55.735Z,101735.34
2023-02-15T09:13:30.634Z,101737.13
2023-02-15T09:16:05.868Z,101742.44
2023-02-15T09:18:41.138Z,101736.25
2023-02-15T09:21:18.868Z,101724.75
2023-02-15T09:23:54.447Z,101725.63
2023-02-15T09:26:29.756Z,101724.75
2023-02-15T09:29:04.759Z,101732.69
2023-02-15T09:31:42.493Z,101724.75
2023-02-15T09:34:18.739Z,101726.53
2023-02-15T09:36:54.554Z,101725.63
2023-02-15T09:39:29.296Z,101725.63
2023-02-15T09:42:42.549Z,101723.84
2023-02-15T09:45:33.163Z,101717.66
2023-02-15T09:48:28.630Z,101717.66
2023-02-15T09:51:19.042Z,101718.53
2023-02-15T09:54:09.959Z,101707.06
2023-02-15T09:56:52.536Z,101713.28
2023-02-15T09:59:37.503Z,101708.88
2023-02-15T10:02:27.142Z,101705.34
2023-02-15T10:05:12.744Z,101702.69
2023-02-15T10:08:23.841Z,101710.66
2023-02-15T10:11:24.037Z,101701.84
2023-02-15T10:14:14.980Z,101695.63
2023-02-15T10:16:58.906Z,101693.00
2023-02-15T10:19:41.982Z,101702.72
2023-02-15T10:22:28.602Z,101695.63
2023-02-15T10:25:18.791Z,101696.50
2023-02-15T10:27:53.648Z,101694.75
2023-02-15T10:30:35.329Z,101702.66
2023-02-15T10:33:23.889Z,101691.16
2023-02-15T10:36:06.998Z,101692.03
2023-02-15T10:38:45.042Z,101692.06
2023-02-15T10:41:33.556Z,101689.41
2023-02-15T10:44:23.428Z,101685.00
2023-02-15T10:47:12.777Z,101682.34
2023-02-15T10:50:12.373Z,101672.59
2023-02-15T10:52:59.298Z,101673.47
2023-02-15T10:55:47.793Z,101671.72
2023-02-15T10:58:32.029Z,101669.06
2023-02-15T11:01:16.006Z,101666.41
2023-02-15T11:04:12.588Z,101671.66
2023-02-15T11:06:52.441Z,101665.50
2023-02-15T11:09:31.780Z,101662.84
2023-02-15T11:12:10.285Z,101673.44
2023-02-15T11:14:50.579Z,101665.50
2023-02-15T11:17:30.567Z,101661.09
2023-02-15T11:20:10.734Z,101663.75
2023-02-15T11:22:44.227Z,101653.16
2023-02-15T11:25:21.647Z,101654.03
2023-02-15T11:27:57.842Z,101653.16
2023-02-15T11:30:45.952Z,101644.31
2023-02-15T11:33:25.223Z,101653.16
2023-02-15T11:36:06.285Z,101648.75
2023-02-15T11:38:44.459Z,101651.41
2023-02-15T11:41:21.426Z,101645.22
2023-02-15T11:44:00.649Z,101640.78
2023-02-15T11:46:34.485Z,101643.44
2023-02-15T11:49:23.342Z,101638.97
2023-02-15T11:51:58.149Z,101645.22
2023-02-15T11:54:34.337Z,101634.59
2023-02-15T11:57:17.310Z,101632.81
2023-02-15T11:59:55.872Z,101626.66
2023-02-15T12:02:31.262Z,101622.25
2023-02-15T12:05:12.012Z,101612.56
2023-02-15T12:07:49.212Z,101607.28
2023-02-15T12:10:26.015Z,101607.31
2023-02-15T12:13:13.237Z,101601.09
2023-02-15T12:15:49.953Z,101594.91
2023-02-15T12:18:38.948Z,101584.31
2023-02-15T12:21:17.616Z,101593.13
2023-02-15T12:23:54.158Z,101588.75
2023-02-15T12:26:29.389Z,101577.25
2023-02-15T12:29:08.970Z,101582.53
2023-02-15T12:31:46.099Z,101593.13
2023-02-15T12:34:24.795Z,101588.75
2023-02-15T12:37:03.311Z,101584.31
2023-02-15T12:39:36.952Z,101587.84
2023-02-15T12:42:20.444Z,101586.94
2023-02-15T12:45:00.071Z,101579.00
2023-02-15T12:47:34.191Z,101580.72
2023-02-15T12:50:18.045Z,101573.69
2023-02-15T12:53:07.829Z,101569.28
2023-02-15T12:55:45.376Z,101561.34
2023-02-15T12:58:20.904Z,101561.34
2023-02-15T13:01:14.193Z,101555.16
2023-02-15T13:03:59.959Z,101556.06
2023-02-15T13:06:37.752Z,101549.03
2023-02-15T13:09:18.530Z,101557.88
2023-02-15T13:11:52.107Z,101548.19
2023-02-15T13:14:34.585Z,101551.72
2023-02-15T13:17:08.986Z,101543.78
2023-02-15T13:19:45.504Z,101541.13
2023-02-15T13:22:24.132Z,101541.13
2023-02-15T13:25:03.971Z,101540.25
2023-02-15T13:27:42.380Z,101536.72
2023-02-15T13:30:37.653Z,101541.13
2023-02-15T13:33:18.887Z,101532.34
2023-02-15T13:36:01.809Z,101535.00
2023-02-15T13:38:52.958Z,101527.03
2023-02-15T13:41:36.425Z,101528.75
2023-02-15T13:44:23.146Z,101528.75
2023-02-15T13:47:14.136Z,101529.63
2023-02-15T13:50:02.784Z,101526.09
2023-02-15T13:52:42.785Z,101523.47
2023-02-15T13:55:39.979Z,101530.53
2023-02-15T13:58:55.207Z,101523.53
2023-02-15T14:01:37.086Z,101517.31
2023-02-15T14:04:27.897Z,101524.47
2023-02-15T14:07:17.235Z,101522.72
2023-02-15T14:10:02.806Z,101522.75
2023-02-15T14:12:56.107Z,101526.28
2023-02-15T14:15:37.962Z,101516.59
2023-02-15T14:18:26.670Z,101513.97
2023-02-15T14:21:08.614Z,101516.59
2023-02-15T14:23:56.456Z,101517.47
2023-02-15T14:26:47.500Z,101513.09
2023-02-15T14:29:31.856Z,101510.44
2023-02-15T14:32:12.978Z,101508.66
2023-02-15T14:34:54.198Z,101505.09
2023-02-15T14:37:45.660Z,101505.09
2023-02-15T14:40:47.152Z,101502.50
2023-02-15T14:43:33.386Z,101504.25
2023-02-15T14:46:14.351Z,101507.75
2023-02-15T14:48:50.695Z,101499.81
2023-02-15T14:52:03.121Z,101498.94
2023-02-15T14:55:01.173Z,101490.09
2023-02-15T14:57:37.268Z,101494.50
2023-02-15T15:00:40.414Z,101494.50
2023-02-15T15:03:23.747Z,101493.66
2023-02-15T15:06:02.727Z,101491.94
2023-02-15T15:08:42.410Z,101484.88
2023-02-15T15:11:44.151Z,101483.09
2023-02-15T15:14:39.906Z,101485.72
2023-02-15T15:17:16.094Z,101485.72
2023-02-15T15:20:14.779Z,101481.31
2023-02-15T15:22:49.095Z,101476.91
2023-02-15T15:25:47.177Z,101476.03
2023-02-15T15:28:57.203Z,101469.84
2023-02-15T15:31:53.163Z,101457.50
2023-02-15T15:35:02.410Z,101460.16
2023-02-15T15:38:01.783Z,101453.97
2023-02-15T15:41:14.960Z,101449.59
2023-02-15T15:44:14.017Z,101445.16
2023-02-15T15:47:10.520Z,101443.41
2023-02-15T15:49:44.326Z,101443.44
2023-02-15T15:52:21.373Z,101443.44
2023-02-15T15:54:59.079Z,101437.25
2023-02-15T15:57:37.328Z,101445.19
2023-02-15T16:00:33.188Z,101431.09
2023-02-15T16:03:07.440Z,101433.75
2023-02-15T16:05:42.042Z,101426.69
2023-02-15T16:08:16.816Z,101430.22
2023-02-15T16:10:50.732Z,101429.34
2023-02-15T16:13:25.814Z,101426.66
2023-02-15T16:16:00.758Z,101426.69
2023-02-15T16:18:37.453Z,101430.22
2023-02-15T16:21:19.879Z,101448.75
2023-02-15T16:24:10.003Z,101432.03
2023-02-15T16:27:08.963Z,101431.13
2023-02-15T16:29:45.080Z,101426.75
2023-02-15T16:32:22.111Z,101432.94
2023-02-15T16:34:58.223Z,101422.34
2023-02-15T16:37:39.316Z,101417.06
2023-02-15T16:40:31.779Z,101422.34
2023-02-15T16:43:12.626Z,101414.47
2023-02-15T16:45:48.941Z,101415.34
2023-02-15T16:48:27.094Z,101412.69
2023-02-15T16:51:05.027Z,101402.97
2023-02-15T16:53:40.174Z,101401.22
2023-02-15T16:56:15.090Z,101404.75
2023-02-15T16:58:53.718Z,101406.50
2023-02-15T17:01:32.330Z,101402.97
2023-02-15T17:04:26.913Z,101402.97
2023-02-15T17:07:02.961Z,101395.03
2023-02-15T17:09:39.587Z,101395.06
2023-02-15T17:12:13.646Z,101394.19
2023-02-15T17:14:47.684Z,101388.03
2023-02-15T17:17:23.034Z,101391.53
2023-02-15T17:19:58.284Z,101387.09
2023-02-15T17:22:32.138Z,101392.38
2023-02-15T17:25:06.286Z,101387.09
2023-02-15T17:27:40.810Z,101388.88
2023-02-15T17:30:16.520Z,101388.88
2023-02-15T17:32:57.367Z,101384.47
2023-02-15T17:35:31.479Z,101382.72
2023-02-15T17:38:07.043Z,101383.59
2023-02-15T17:40:40.808Z,101388.88
2023-02-15T17:43:14.503Z,101368.63
2023-02-15T17:45:50.545Z,101371.25
2023-02-15T17:48:34.076Z,101373.88
2023-02-15T17:51:10.675Z,101370.38
2023-02-15T17:54:06.262Z,101364.16
2023-02-15T17:56:39.600Z,101368.59
2023-02-15T17:59:14.456Z,101363.31
2023-02-15T18:02:07.413Z,101355.38
2023-02-15T18:05:00.303Z,101346.59
2023-02-15T18:07:51.082Z,101350.09
2023-02-15T18:10:41.980Z,101341.31
2023-02-15T18:13:15.809Z,101347.47
2023-02-15T18:15:49.711Z,101343.94
2023-02-15T18:18:24.444Z,101344.81
2023-02-15T18:20:59.680Z,101344.81
2023-02-15T18:23:33.458Z,101349.22
2023-02-15T18:26:07.497Z,101341.28
2023-02-15T18:28:43.393Z,101336.00
2023-02-15T18:31:17.292Z,101333.34
2023-02-15T18:33:52.423Z,101328.09
2023-02-15T18:36:29.579Z,101331.63
2023-02-15T18:39:08.785Z,101324.59
2023-02-15T18:41:44.158Z,101323.75
2023-02-15T18:44:17.944Z,101325.47
2023-02-15T18:46:54.277Z,101321.09
2023-02-15T18:49:28.154Z,101321.97
2023-02-15T18:52:03.571Z,101315.84
2023-02-15T18:54:37.648Z,101313.19
2023-02-15T18:57:12.638Z,101318.47
2023-02-15T18:59:46.300Z,101319.38
2023-02-15T19:02:20.752Z,101314.97
2023-02-15T19:04:54.831Z,101314.97
2023-02-15T19:07:31.700Z,101305.28
2023-02-15T19:10:06.887Z,101307.06
2023-02-15T19:12:40.719Z,101306.19
2023-02-15T19:15:17.818Z,101306.19
2023-02-15T19:17:52.334Z,101301.78
2023-02-15T19:20:27.559Z,101292.97
2023-02-15T19:23:03.270Z,101292.97
2023-02-15T19:25:39.465Z,101299.13
2023-02-15T19:28:17.446Z,101292.09
2023-02-15T19:30:51.379Z,101292.09
2023-02-15T19:33:25.430Z,101291.22
2023-02-15T19:35:59.419Z,101285.06
2023-02-15T19:38:38.662Z,101286.81
2023-02-15T19:41:19.711Z,101283.31
2023-02-15T19:43:56.323Z,101279.81
2023-02-15T19:46:30.509Z,101272.75
2023-02-15T19:49:04.426Z,101269.22
2023-02-15T19:51:41.909Z,101268.34
2023-02-15T19:54:27.581Z,101265.69
2023-02-15T19:57:01.973Z,101261.31
2023-02-15T19:59:38.282Z,101268.34
2023-02-15T20:02:15.051Z,101262.19
2023-02-15T20:04:49.529Z,101266.59
2023-02-15T20:07:26.440Z,101265.72
2023-02-15T20:10:01.903Z,101253.38
2023-02-15T20:12:35.754Z,101248.09
2023-02-15T20:15:18.787Z,101246.31
2023-02-15T20:17:55.231Z,101237.53
2023-02-15T20:20:31.386Z,101241.06
2023-02-15T20:23:05.772Z,101234.88
2023-02-15T20:25:41.218Z,101229.63
2023-02-15T20:28:19.007Z,101235.78
2023-02-15T20:30:53.409Z,101227.88
2023-02-15T20:33:30.617Z,101230.50
2023-02-15T20:36:04.448Z,101236.66
2023-02-15T20:38:38.318Z,101229.63
2023-02-15T20:41:34.208Z,101227.84
2023-02-15T20:44:16.634Z,101222.56
2023-02-15T20:46:51.256Z,101228.72
2023-02-15T20:49:26.126Z,101220.81
2023-02-15T20:52:00.260Z,101215.56
2023-02-15T20:54:35.854Z,101214.66
2023-02-15T20:57:13.174Z,101218.19
2023-02-15T20:59:47.279Z,101217.28
2023-02-15T21:02:23.837Z,101219.06
2023-02-15T21:04:57.831Z,101209.38
2023-02-15T21:07:31.840Z,101206.72
2023-02-15T21:10:09.976Z,101210.25
2023-02-15T21:12:45.803Z,101209.34
2023-02-15T21:15:30.739Z,101204.97
2023-02-15T21:18:06.337Z,101201.44
2023-02-15T21:20:45.710Z,101198.81
2023-02-15T21:23:21.640Z,101201.44
2023-02-15T21:25:56.767Z,101186.50
2023-02-15T21:28:31.917Z,101195.28
2023-02-15T21:31:08.326Z,101192.66
2023-02-15T21:33:44.245Z,101197.94
2023-02-15T21:36:18.657Z,101192.66
2023-02-15T21:38:53.952Z,101190.00
2023-02-15T21:41:46.771Z,101188.28
2023-02-15T21:44:40.842Z,101181.22
2023-02-15T21:47:36.688Z,101170.66
2023-02-15T21:50:28.283Z,101173.31
2023-02-15T21:53:04.127Z,101174.16
2023-02-15T21:55:37.377Z,101175.06
2023-02-15T21:58:16.253Z,101173.31
2023-02-15T22:00:54.799Z,101171.53
2023-02-15T22:03:29.138Z,101161.88
2023-02-15T22:06:05.979Z,101159.25
2023-02-15T22:08:39.143Z,101153.97
2023-02-15T22:11:13.733Z,101151.34
2023-02-15T22:13:51.884Z,101146.94
2023-02-15T22:16:26.658Z,101147.81
2023-02-15T22:19:02.670Z,101146.06
2023-02-15T22:21:36.031Z,101150.47
2023-02-15T22:24:09.633Z,101150.44
2023-02-15T22:26:42.886Z,101131.09
2023-02-15T22:29:17.349Z,101127.59
2023-02-15T22:31:56.343Z,101130.22
2023-02-15T22:34:31.584Z,101124.09
2023-02-15T22:37:06.089Z,101119.66
2023-02-15T22:39:39.649Z,101117.03
2023-02-15T22:42:20.937Z,101113.53
2023-02-15T22:44:55.248Z,101104.75
2023-02-15T22:47:32.310Z,101102.97
2023-02-15T22:50:07.643Z,101102.13
2023-02-15T22:52:40.865Z,101095.94
2023-02-15T22:55:15.524Z,101102.13
2023-02-15T22:57:50.274Z,101100.34
2023-02-15T23:00:25.618Z,101102.13
2023-02-15T23:03:00.535Z,101100.34
2023-02-15T23:05:33.882Z,101092.44
2023-02-15T23:08:07.565Z,101095.09
2023-02-15T23:10:41.710Z,101095.94
2023-02-15T23:13:26.334Z,101088.91
2023-02-15T23:16:00.430Z,101087.19
2023-02-15T23:18:35.828Z,101084.53
2023-02-15T23:21:17.002Z,101080.13
2023-02-15T23:23:51.979Z,101082.78
2023-02-15T23:26:27.665Z,101084.53
2023-02-15T23:29:01.736Z,101087.19
2023-02-15T23:31:35.855Z,101081.91
2023-02-15T23:34:15.200Z,101081.91
2023-02-15T23:36:48.938Z,101077.50
2023-02-15T23:39:44.412Z,101083.66
2023-02-15T23:42:19.027Z,101073.09
2023-02-15T23:44:52.115Z,101080.13
2023-02-15T23:47:42.489Z,101073.09
2023-02-15T23:50:18.952Z,101068.72
2023-02-15T23:52:53.958Z,101061.69
2023-02-15T23:55:29.806Z,101062.59
2023-02-15T23:58:06.606Z,101058.19
